Time;durP1;ratioP1;P1;durP2;ratioP2;P2;SDS_P1;SDS_P2;PMS_P1;PMS_P2;Temp;Humidity;BMP_temperature;BMP_pressure;BME280_temperature;BME280_humidity;BME280_pressure;Samples;Min_cycle;Max_cycle;Signal;HPM_P1;HPM_P2
2022/11/03 00:00:41;;;;;;;69.20;9.52;;;9.00;1.00;;;;;;5040750;28;20529;-71
2022/11/03 00:03:09;;;;;;;66.20;9.40;;;9.10;1.00;;;;;;5051688;28;20202;-71
2022/11/03 00:08:20;;;;;;;66.77;9.50;;;8.90;1.00;;;;;;5051287;28;20298;-71
2022/11/03 00:10:47;;;;;;;66.20;9.60;;;8.90;1.00;;;;;;5050619;28;20488;-71
2022/11/03 00:13:14;;;;;;;69.17;10.47;;;9.10;1.00;;;;;;5051180;28;20206;-71
2022/11/03 00:15:48;;;;;;;65.50;9.20;;;8.90;1.00;;;;;;5051339;28;20917;-72
2022/11/03 00:18:16;;;;;;;69.18;9.93;;;9.00;1.00;;;;;;5051105;28;20471;-72
2022/11/03 00:20:43;;;;;;;67.93;9.10;;;9.00;1.00;;;;;;5050736;28;20208;-72
2022/11/03 00:23:10;;;;;;;69.50;10.32;;;9.00;1.00;;;;;;5051592;28;20207;-71
2022/11/03 00:25:37;;;;;;;73.57;10.33;;;8.90;1.00;;;;;;5051290;28;20489;-71
2022/11/03 00:28:04;;;;;;;72.43;10.90;;;8.90;1.00;;;;;;5050989;28;20476;-71
2022/11/03 00:30:30;;;;;;;68.70;10.95;;;8.70;1.00;;;;;;5054452;28;20229;-72
2022/11/03 00:32:59;;;;;;;66.72;10.90;;;8.60;1.00;;;;;;5055175;28;20221;-71
2022/11/03 00:35:27;;;;;;;67.15;10.25;;;8.70;1.00;;;;;;5054809;28;20702;-72
2022/11/03 00:37:53;;;;;;;67.88;10.73;;;8.80;1.00;;;;;;5054867;28;20230;-72
2022/11/03 00:40:20;;;;;;;72.68;11.20;;;8.80;1.00;;;;;;5054041;28;20239;-71
2022/11/03 00:42:47;;;;;;;71.20;12.30;;;8.80;1.00;;;;;;5055068;28;20206;-71
2022/11/03 00:45:14;;;;;;;70.28;11.93;;;8.80;1.00;;;;;;5054665;28;20452;-72
2022/11/03 00:48:28;;;;;;;66.93;10.23;;;8.80;1.00;;;;;;5054660;28;20232;-71
2022/11/03 00:50:29;;;;;;;69.35;10.88;;;8.90;1.00;;;;;;5053747;28;20221;-71
2022/11/03 00:52:55;;;;;;;72.47;10.35;;;8.70;1.00;;;;;;5054498;28;20202;-71
2022/11/03 00:55:22;;;;;;;65.95;10.30;;;8.60;1.00;;;;;;5054703;28;20218;-72
2022/11/03 00:57:51;;;;;;;72.40;9.80;;;8.60;1.00;;;;;;5054605;28;20230;-71
2022/11/03 01:00:18;;;;;;;66.95;9.35;;;8.60;1.00;;;;;;5053829;28;20452;-72
2022/11/03 01:02:45;;;;;;;69.18;11.10;;;8.50;1.00;;;;;;5054471;28;20206;-71
2022/11/03 01:07:57;;;;;;;65.53;9.23;;;8.60;1.00;;;;;;5054360;28;20302;-72
2022/11/03 01:10:24;;;;;;;66.80;10.77;;;8.70;1.00;;;;;;5053918;28;20665;-71
2022/11/03 01:12:51;;;;;;;67.90;9.55;;;8.70;1.00;;;;;;5054235;28;20556;-71
2022/11/03 01:15:18;;;;;;;67.10;9.88;;;8.80;1.00;;;;;;5054273;28;20210;-71
2022/11/03 01:17:44;;;;;;;72.22;10.25;;;8.80;1.00;;;;;;5053965;28;20222;-71
2022/11/03 01:20:11;;;;;;;66.60;9.30;;;8.80;1.00;;;;;;5053324;28;20288;-71
2022/11/03 01:22:38;;;;;;;69.15;9.77;;;8.80;1.00;;;;;;5054006;28;20210;-71
2022/11/03 01:25:07;;;;;;;70.35;10.00;;;8.80;1.00;;;;;;5053925;28;20671;-72
2022/11/03 01:27:35;;;;;;;68.43;10.13;;;8.80;1.00;;;;;;5053947;28;20229;-71
2022/11/03 01:30:01;;;;;;;68.53;9.02;;;8.70;1.00;;;;;;5053221;28;20205;-71
2022/11/03 01:32:28;;;;;;;70.38;9.50;;;8.70;1.00;;;;;;5053711;28;20225;-71
2022/11/03 01:34:55;;;;;;;66.45;8.65;;;8.70;1.00;;;;;;5053881;28;20594;-72
2022/11/03 01:37:22;;;;;;;72.30;9.88;;;8.60;1.00;;;;;;5054044;28;20228;-71
2022/11/03 01:39:48;;;;;;;71.25;9.98;;;8.60;1.00;;;;;;5053086;28;20208;-71
2022/11/03 01:42:17;;;;;;;72.00;10.05;;;8.60;1.00;;;;;;5053740;28;20204;-71
2022/11/03 01:44:46;;;;;;;68.57;8.82;;;8.60;1.00;;;;;;5053650;28;20209;-71
2022/11/03 01:47:19;;;;;;;71.18;9.07;;;8.60;1.00;;;;;;5053660;28;20228;-71
2022/11/03 01:49:51;;;;;;;68.93;9.23;;;8.60;1.00;;;;;;5052905;28;20201;-71
2022/11/03 01:52:23;;;;;;;68.57;9.80;;;8.60;1.00;;;;;;5053710;28;20240;-72
2022/11/03 01:54:55;;;;;;;66.97;8.77;;;8.60;1.00;;;;;;5053576;28;20301;-71
2022/11/03 01:57:29;;;;;;;70.82;9.77;;;8.60;1.00;;;;;;5053223;28;20226;-71
2022/11/03 01:59:57;;;;;;;67.32;8.75;;;8.50;1.00;;;;;;5052749;28;20212;-72
2022/11/03 02:02:24;;;;;;;66.25;9.43;;;8.50;1.00;;;;;;5053467;28;20224;-71
2022/11/03 02:04:51;;;;;;;69.28;10.10;;;8.40;1.00;;;;;;5053248;28;20207;-71
2022/11/03 02:07:26;;;;;;;74.20;10.25;;;8.40;1.00;;;;;;5053181;28;20222;-71
2022/11/03 02:09:53;;;;;;;66.80;8.43;;;8.40;1.00;;;;;;5052340;28;20296;-71
2022/11/03 02:12:23;;;;;;;67.00;8.30;;;8.30;1.00;;;;;;5052987;28;20728;-72
2022/11/03 02:14:54;;;;;;;65.93;8.80;;;8.30;1.00;;;;;;5052983;28;20213;-71
2022/11/03 02:17:22;;;;;;;66.55;9.38;;;8.20;1.00;;;;;;5053048;28;20236;-71
2022/11/03 02:19:53;;;;;;;67.43;7.95;;;7.90;1.00;;;;;;5052252;28;20206;-71
2022/11/03 02:22:56;;;;;;;66.03;8.60;;;8.00;1.00;;;;;;5052871;28;20284;-72
2022/11/03 02:25:37;;;;;;;66.32;8.07;;;8.00;1.00;;;;;;5053027;28;20210;-72
2022/11/03 02:28:05;;;;;;;64.53;8.80;;;8.10;1.00;;;;;;5052829;28;20343;-71
2022/11/03 02:30:37;;;;;;;66.40;8.45;;;8.10;1.00;;;;;;5051799;28;20206;-71
2022/11/03 02:33:11;;;;;;;68.28;10.32;;;8.10;1.00;;;;;;5052907;28;20210;-71
2022/11/03 02:35:42;;;;;;;67.65;9.18;;;8.10;1.00;;;;;;5052866;28;20206;-71
2022/11/03 02:38:13;;;;;;;67.53;9.70;;;8.10;1.00;;;;;;5052439;28;20236;-71
2022/11/03 02:40:45;;;;;;;65.93;8.80;;;8.10;1.00;;;;;;5051899;28;20216;-71
2022/11/03 02:43:13;;;;;;;70.97;9.70;;;8.10;1.00;;;;;;5052494;28;20210;-71
2022/11/03 02:45:40;;;;;;;79.95;10.00;;;8.00;1.00;;;;;;5052683;28;20206;-71
2022/11/03 02:48:08;;;;;;;65.97;8.55;;;8.00;1.00;;;;;;5052554;28;20279;-72
2022/11/03 02:50:35;;;;;;;68.00;7.95;;;8.00;1.00;;;;;;5047380;28;20212;-71
2022/11/03 02:53:02;;;;;;;66.65;8.75;;;8.00;1.00;;;;;;5051917;28;20202;-71
2022/11/03 02:55:35;;;;;;;63.53;9.07;;;8.00;1.00;;;;;;5052427;28;20212;-72
2022/11/03 02:58:11;;;;;;;69.28;9.07;;;7.90;1.00;;;;;;5052151;28;20317;-71
2022/11/03 03:00:45;;;;;;;67.63;9.30;;;8.00;1.00;;;;;;5051671;28;20205;-72
2022/11/03 03:03:17;;;;;;;65.63;8.30;;;8.00;1.00;;;;;;5052196;28;20206;-72
2022/11/03 03:05:45;;;;;;;65.45;8.35;;;8.00;1.00;;;;;;5052341;28;20209;-72
2022/11/03 03:08:14;;;;;;;67.60;9.32;;;8.00;1.00;;;;;;5052057;28;20230;-71
2022/11/03 03:10:44;;;;;;;64.97;9.65;;;8.00;1.00;;;;;;5051522;28;20214;-71
2022/11/03 03:13:15;;;;;;;65.72;8.95;;;8.00;1.00;;;;;;5052484;28;20202;-71
2022/11/03 03:15:46;;;;;;;63.75;7.85;;;8.00;1.00;;;;;;5051899;28;20296;-72
2022/11/03 03:18:20;;;;;;;69.32;9.88;;;7.90;1.00;;;;;;5052033;28;20308;-71
2022/11/03 03:20:54;;;;;;;66.38;8.95;;;7.90;1.00;;;;;;5051546;28;20212;-71
2022/11/03 03:23:25;;;;;;;67.65;9.23;;;7.90;1.00;;;;;;5052001;28;20212;-71
2022/11/03 03:25:58;;;;;;;66.32;8.15;;;7.90;1.00;;;;;;5051773;28;20212;-71
2022/11/03 03:28:32;;;;;;;64.28;8.70;;;7.80;1.00;;;;;;5051756;28;20230;-71
2022/11/03 03:31:02;;;;;;;66.55;8.80;;;7.80;1.00;;;;;;5052012;28;20638;-71
2022/11/03 03:33:31;;;;;;;64.78;9.43;;;7.80;1.00;;;;;;5052088;28;20236;-71
2022/11/03 03:36:00;;;;;;;67.32;8.65;;;7.80;1.00;;;;;;5051820;28;20584;-71
2022/11/03 03:38:33;;;;;;;64.15;8.27;;;7.80;1.00;;;;;;5051393;28;20604;-72
2022/11/03 03:41:01;;;;;;;66.05;9.00;;;7.70;1.00;;;;;;5051618;28;20205;-71
2022/11/03 03:43:32;;;;;;;65.53;9.45;;;7.70;1.00;;;;;;5051960;28;20214;-71
2022/11/03 03:46:06;;;;;;;67.78;9.60;;;7.70;1.00;;;;;;5051614;28;20296;-72
2022/11/03 03:48:33;;;;;;;65.25;9.65;;;7.70;1.00;;;;;;5051001;28;20307;-71
2022/11/03 03:51:01;;;;;;;68.22;8.80;;;7.70;1.00;;;;;;5051100;28;20602;-71
2022/11/03 03:53:30;;;;;;;67.13;9.40;;;7.80;1.00;;;;;;5051511;28;20205;-71
2022/11/03 03:55:59;;;;;;;64.25;8.50;;;7.80;1.00;;;;;;5051683;28;20216;-72
2022/11/03 03:58:25;;;;;;;65.20;8.45;;;7.80;1.00;;;;;;5051268;28;20271;-71
2022/11/03 04:00:54;;;;;;;66.10;9.48;;;7.70;1.00;;;;;;5050938;28;20296;-71
2022/11/03 04:03:23;;;;;;;66.80;8.65;;;7.70;1.00;;;;;;5053633;28;20206;-71
2022/11/03 04:05:49;;;;;;;71.32;8.68;;;7.70;1.00;;;;;;5055709;28;20232;-71
2022/11/03 04:08:17;;;;;;;66.32;9.80;;;7.70;1.00;;;;;;5055269;28;20240;-72
2022/11/03 04:22:15;;;;;;;68.07;9.15;;;7.60;1.00;;;;;;5054897;28;20238;-71
2022/11/03 04:24:30;;;;;;;67.45;9.25;;;6.90;1.00;;;;;;5055184;28;20312;-71
2022/11/03 04:27:02;;;;;;;65.80;8.95;;;6.70;1.00;;;;;;5055210;28;20229;-72
2022/11/03 04:29:29;;;;;;;66.90;8.65;;;7.00;1.00;;;;;;5054288;28;20216;-71
2022/11/03 04:31:57;;;;;;;69.18;9.50;;;7.10;1.00;;;;;;5055058;28;20599;-71
2022/11/03 04:34:25;;;;;;;68.93;8.98;;;7.20;1.00;;;;;;5054870;28;20719;-71
2022/11/03 04:36:51;;;;;;;66.35;8.65;;;7.20;1.00;;;;;;5054736;28;20599;-71
2022/11/03 04:39:20;;;;;;;66.68;9.55;;;7.10;1.00;;;;;;5054559;28;20205;-72
2022/11/03 04:41:47;;;;;;;66.85;9.35;;;7.10;1.00;;;;;;5054956;28;20201;-71
2022/11/03 04:44:15;;;;;;;73.75;8.82;;;7.10;1.00;;;;;;5054898;28;20212;-71
2022/11/03 04:46:43;;;;;;;66.65;8.70;;;7.20;1.00;;;;;;5054801;28;20234;-71
2022/11/03 04:49:16;;;;;;;68.63;8.35;;;7.20;1.00;;;;;;5053885;28;20220;-72
2022/11/03 04:51:43;;;;;;;67.47;9.63;;;7.30;1.00;;;;;;5054589;28;20356;-71
2022/11/03 04:54:16;;;;;;;64.97;9.32;;;7.20;1.00;;;;;;5054806;28;20390;-71
2022/11/03 04:56:42;;;;;;;64.82;9.05;;;7.30;1.00;;;;;;5054726;28;20241;-71
2022/11/03 04:59:12;;;;;;;70.38;9.32;;;7.40;1.00;;;;;;5053815;28;20210;-71
2022/11/03 05:01:39;;;;;;;66.90;9.32;;;7.50;1.00;;;;;;5054544;28;20202;-71
2022/11/03 05:04:11;;;;;;;68.20;10.20;;;7.50;1.00;;;;;;5054402;28;20213;-71
2022/11/03 05:06:39;;;;;;;66.40;9.00;;;7.60;1.00;;;;;;5054560;28;20213;-71
2022/11/03 05:09:14;;;;;;;68.45;9.00;;;7.70;1.00;;;;;;5053680;28;20233;-71
2022/11/03 05:11:43;;;;;;;73.00;9.40;;;7.60;1.00;;;;;;5054150;28;20225;-71
2022/11/03 05:14:16;;;;;;;66.72;9.48;;;7.60;1.00;;;;;;5053574;28;20205;-71
2022/11/03 05:16:43;;;;;;;72.75;10.13;;;7.60;1.00;;;;;;5054292;28;20229;-71
2022/11/03 05:19:15;;;;;;;65.65;8.27;;;7.60;1.00;;;;;;5053463;28;20205;-71
2022/11/03 05:21:44;;;;;;;68.65;10.43;;;7.70;1.00;;;;;;5054303;28;20210;-71
2022/11/03 05:24:13;;;;;;;67.68;9.57;;;7.70;1.00;;;;;;5054175;28;20213;-71
2022/11/03 05:26:40;;;;;;;65.22;9.30;;;7.70;1.00;;;;;;5053898;28;20214;-71
2022/11/03 05:29:13;;;;;;;67.47;8.95;;;7.70;1.00;;;;;;5053115;28;20206;-72
2022/11/03 05:31:41;;;;;;;67.63;9.18;;;7.70;1.00;;;;;;5053918;28;20245;-71
2022/11/03 05:34:26;;;;;;;79.00;9.73;;;7.70;1.00;;;;;;5054016;28;20272;-71
2022/11/03 05:36:55;;;;;;;66.28;9.45;;;7.70;1.00;;;;;;5053841;28;20225;-71
2022/11/03 05:39:30;;;;;;;65.65;8.93;;;7.70;1.00;;;;;;5052894;28;20210;-71
2022/11/03 05:41:59;;;;;;;68.95;8.77;;;7.60;1.00;;;;;;5053863;28;20204;-71
2022/11/03 05:44:30;;;;;;;65.50;9.30;;;7.60;1.00;;;;;;5053647;28;20678;-71
2022/11/03 05:46:58;;;;;;;66.20;9.30;;;7.60;1.00;;;;;;5053752;28;20297;-70
2022/11/03 05:49:25;;;;;;;67.25;8.82;;;7.60;1.00;;;;;;5052855;28;20243;-71
2022/11/03 05:51:52;;;;;;;64.38;7.75;;;7.60;1.00;;;;;;5053445;28;20722;-72
2022/11/03 05:54:22;;;;;;;68.15;10.00;;;7.50;1.00;;;;;;5053784;28;20205;-71
2022/11/03 05:56:49;;;;;;;66.97;9.15;;;7.50;1.00;;;;;;5053308;28;20232;-71
2022/11/03 05:59:20;;;;;;;74.60;8.63;;;7.50;1.00;;;;;;5052747;28;20293;-72
2022/11/03 06:01:47;;;;;;;66.95;9.68;;;7.40;1.00;;;;;;5053502;28;20213;-70
2022/11/03 06:04:18;;;;;;;68.68;9.85;;;7.40;1.00;;;;;;5053190;28;20692;-71
2022/11/03 06:06:51;;;;;;;68.53;9.77;;;7.30;1.00;;;;;;5053398;28;20248;-71
2022/11/03 06:09:23;;;;;;;65.72;9.18;;;7.40;1.00;;;;;;5052437;28;20209;-71
2022/11/03 06:11:51;;;;;;;67.35;9.98;;;7.40;1.00;;;;;;5053279;28;20233;-71
2022/11/03 06:14:20;;;;;;;67.10;9.65;;;7.50;1.00;;;;;;5053117;28;20209;-71
2022/11/03 06:16:49;;;;;;;66.50;9.85;;;7.50;1.00;;;;;;5052872;28;20230;-71
2022/11/03 06:19:22;;;;;;;65.72;9.52;;;7.40;1.00;;;;;;5052527;28;20201;-71
2022/11/03 06:21:51;;;;;;;68.13;8.55;;;7.40;1.00;;;;;;5053108;28;20202;-71
2022/11/03 06:24:20;;;;;;;69.95;9.73;;;7.30;1.00;;;;;;5053098;28;20205;-71
2022/11/03 06:26:49;;;;;;;68.55;9.27;;;7.30;1.00;;;;;;5051901;28;20226;-72
2022/11/03 06:29:18;;;;;;;64.97;8.52;;;7.30;1.00;;;;;;5052034;28;20674;-71
2022/11/03 06:31:48;;;;;;;66.18;7.75;;;7.30;1.00;;;;;;5052716;28;20210;-71
2022/11/03 06:34:26;;;;;;;69.43;9.77;;;7.30;1.00;;;;;;5052803;28;20652;-71
2022/11/03 06:36:55;;;;;;;69.30;10.60;;;7.40;1.00;;;;;;5052774;28;20226;-71
2022/11/03 06:39:24;;;;;;;69.60;12.23;;;7.40;1.00;;;;;;5051848;28;20209;-71
2022/11/03 06:41:52;;;;;;;73.18;14.95;;;7.50;1.00;;;;;;5052491;28;20209;-72
2022/11/03 06:44:24;;;;;;;75.35;15.13;;;7.50;1.00;;;;;;5052701;28;20585;-72
2022/11/03 06:46:51;;;;;;;71.47;14.80;;;7.60;1.00;;;;;;5052424;28;20237;-71
2022/11/03 06:49:28;;;;;;;69.50;12.10;;;7.60;1.00;;;;;;5051821;28;20582;-72
2022/11/03 06:51:55;;;;;;;69.15;11.70;;;7.70;1.00;;;;;;5052356;28;20325;-71
2022/11/03 06:54:21;;;;;;;70.00;10.35;;;7.70;1.00;;;;;;5052407;28;20216;-72
2022/11/03 06:56:48;;;;;;;66.82;10.07;;;7.70;1.00;;;;;;5052134;28;20714;-72
2022/11/03 06:59:18;;;;;;;66.75;10.80;;;7.80;1.00;;;;;;5051658;28;20205;-72
2022/11/03 07:01:47;;;;;;;70.70;10.93;;;7.90;1.00;;;;;;5052269;28;20205;-72
2022/11/03 07:04:18;;;;;;;68.50;9.35;;;8.00;1.00;;;;;;5052201;28;20208;-72
2022/11/03 07:06:46;;;;;;;70.53;11.98;;;8.10;1.00;;;;;;5052007;28;20232;-72
2022/11/03 07:09:19;;;;;;;73.03;10.93;;;8.20;1.00;;;;;;5051339;28;20704;-71
2022/11/03 07:11:48;;;;;;;70.75;10.88;;;8.10;1.00;;;;;;5052185;28;20542;-72
2022/11/03 07:14:19;;;;;;;68.20;9.88;;;8.10;1.00;;;;;;5052423;28;20205;-72
2022/11/03 07:16:48;;;;;;;72.00;11.25;;;8.30;1.00;;;;;;5052022;28;20256;-71
2022/11/03 07:19:19;;;;;;;71.70;10.65;;;8.50;1.00;;;;;;5051161;28;20205;-71
2022/11/03 07:21:48;;;;;;;66.80;10.02;;;8.60;1.00;;;;;;5052145;28;20223;-72
2022/11/03 07:24:21;;;;;;;71.57;11.35;;;8.80;1.00;;;;;;5051777;28;20202;-72
2022/11/03 07:26:48;;;;;;;69.03;9.88;;;9.00;1.00;;;;;;5051981;28;20593;-72
2022/11/03 07:29:20;;;;;;;70.93;10.38;;;9.20;1.00;;;;;;5051122;28;20206;-72
2022/11/03 07:31:48;;;;;;;67.55;10.25;;;9.20;1.00;;;;;;5051679;28;20210;-72
2022/11/03 07:34:20;;;;;;;68.83;10.07;;;9.10;1.00;;;;;;5051815;28;20218;-72
2022/11/03 07:36:47;;;;;;;69.60;10.38;;;8.60;1.00;;;;;;5051767;28;20472;-72
2022/11/03 07:39:18;;;;;;;68.85;8.75;;;8.50;1.00;;;;;;5050861;28;20206;-71
2022/11/03 07:41:45;;;;;;;67.97;10.45;;;8.30;1.00;;;;;;5051668;28;20201;-72
2022/11/03 07:44:16;;;;;;;65.70;8.83;;;7.90;1.00;;;;;;5051549;28;20202;-72
2022/11/03 07:46:44;;;;;;;66.80;9.20;;;8.00;1.00;;;;;;5051848;28;20499;-72
2022/11/03 07:49:24;;;;;;;66.13;9.43;;;8.30;1.00;;;;;;5050885;28;20210;-73
2022/11/03 07:51:51;;;;;;;68.25;9.45;;;8.50;1.00;;;;;;5051637;28;20471;-72
2022/11/03 07:54:22;;;;;;;71.73;9.20;;;8.80;1.00;;;;;;5051527;28;20209;-71
2022/11/03 07:56:52;;;;;;;69.80;11.00;;;8.90;1.00;;;;;;5051516;28;20469;-72
2022/11/03 07:59:22;;;;;;;67.37;10.20;;;9.30;1.00;;;;;;5050966;28;20444;-72
2022/11/03 08:01:52;;;;;;;69.83;9.30;;;9.70;1.00;;;;;;5051736;28;20440;-71
2022/11/03 08:04:23;;;;;;;66.00;10.07;;;9.50;1.00;;;;;;5051781;28;20445;-72
2022/11/03 08:06:50;;;;;;;64.73;9.00;;;9.90;1.00;;;;;;5051431;28;20468;-72
2022/11/03 08:09:17;;;;;;;65.07;9.67;;;10.30;1.00;;;;;;5050668;28;20483;-72
2022/11/03 08:11:44;;;;;;;63.60;9.20;;;10.60;1.00;;;;;;5051326;28;20449;-71
2022/11/03 08:14:11;;;;;;;70.83;8.17;;;10.60;1.00;;;;;;5051381;28;21028;-72
2022/11/03 08:16:37;;;;;;;63.60;8.73;;;10.90;1.00;;;;;;5051507;28;20453;-73
2022/11/03 08:19:06;;;;;;;66.63;8.87;;;11.30;1.00;;;;;;5050625;28;20822;-72
2022/11/03 08:21:33;;;;;;;67.13;8.90;;;11.50;1.00;;;;;;5051408;28;20792;-72
2022/11/03 08:24:00;;;;;;;66.30;9.00;;;11.80;1.00;;;;;;5051176;28;20453;-72
2022/11/03 08:26:27;;;;;;;66.33;9.73;;;12.10;1.00;;;;;;5051150;28;20470;-72
2022/11/03 08:28:54;;;;;;;68.83;9.23;;;12.20;1.00;;;;;;5050681;28;20462;-72
2022/11/03 08:31:20;;;;;;;69.10;8.53;;;12.40;1.00;;;;;;5051427;28;20451;-72
2022/11/03 08:33:47;;;;;;;66.07;8.20;;;12.40;1.00;;;;;;5051156;28;20509;-72
2022/11/03 08:36:15;;;;;;;64.53;7.90;;;12.60;1.00;;;;;;5051152;28;20458;-72
2022/11/03 08:38:42;;;;;;;69.10;8.40;;;12.30;1.00;;;;;;5050372;28;20530;-72
2022/11/03 08:41:09;;;;;;;68.83;8.83;;;12.20;1.00;;;;;;5051347;28;20474;-72
2022/11/03 08:43:36;;;;;;;64.70;8.53;;;12.40;1.00;;;;;;5051223;28;20455;-73
2022/11/03 08:46:03;;;;;;;67.67;8.80;;;12.70;1.00;;;;;;5051025;28;20468;-72
2022/11/03 08:48:30;;;;;;;64.37;8.40;;;12.80;1.00;;;;;;5050651;28;20468;-73
2022/11/03 08:50:56;;;;;;;75.00;8.70;;;13.00;1.00;;;;;;5053324;28;20974;-73
2022/11/03 08:53:26;;;;;;;68.17;8.87;;;13.40;1.00;;;;;;5054541;28;20855;-72
2022/11/03 08:55:53;;;;;;;66.83;9.50;;;13.50;1.00;;;;;;5054768;28;20454;-73
2022/11/03 08:58:20;;;;;;;71.00;9.43;;;13.80;1.00;;;;;;5054349;28;20481;-72
2022/11/03 09:00:47;;;;;;;65.27;8.57;;;13.60;1.00;;;;;;5054062;28;20842;-72
2022/11/03 09:03:14;;;;;;;66.20;8.47;;;13.50;1.00;;;;;;5054470;28;20498;-73
2022/11/03 09:05:42;;;;;;;65.90;9.07;;;13.60;1.00;;;;;;5054335;28;20495;-73
2022/11/03 09:08:08;;;;;;;67.03;8.80;;;13.50;1.00;;;;;;5054483;28;20472;-72
2022/11/03 09:10:37;;;;;;;69.47;8.83;;;13.60;1.00;;;;;;5053803;28;20452;-73
2022/11/03 09:13:04;;;;;;;66.63;9.07;;;13.90;1.00;;;;;;5054393;28;20493;-73
2022/11/03 09:15:31;;;;;;;68.87;9.83;;;13.80;1.00;;;;;;5054345;28;20444;-72
2022/11/03 09:17:57;;;;;;;65.20;8.50;;;14.00;1.00;;;;;;5053877;28;20468;-73
2022/11/03 09:20:24;;;;;;;71.27;9.20;;;14.40;1.00;;;;;;5053707;28;20838;-72
2022/11/03 09:22:52;;;;;;;66.10;8.60;;;14.50;1.00;;;;;;5054360;28;20446;-72
2022/11/03 09:25:19;;;;;;;63.57;7.70;;;14.90;1.00;;;;;;5054303;28;20448;-72
2022/11/03 09:27:47;;;;;;;64.93;8.27;;;15.70;1.00;;;;;;5054023;28;20845;-73
2022/11/03 09:30:14;;;;;;;65.33;9.50;;;16.60;1.00;;;;;;5053213;28;20454;-73
2022/11/03 09:32:41;;;;;;;64.43;8.53;;;17.40;1.00;;;;;;5053847;28;21066;-72
2022/11/03 09:35:08;;;;;;;67.40;9.30;;;17.30;1.00;;;;;;5054028;28;20456;-73
2022/11/03 09:37:35;;;;;;;67.40;8.50;;;18.00;99.90;;;;;;5053925;28;20511;-72
2022/11/03 09:40:03;;;;;;;65.80;7.83;;;18.20;99.90;;;;;;5053347;28;20440;-73
2022/11/03 09:42:33;;;;;;;63.23;8.07;;;18.10;99.90;;;;;;5053748;28;20523;-73
2022/11/03 09:45:01;;;;;;;67.17;9.33;;;18.70;99.90;;;;;;5053937;28;20453;-73
2022/11/03 09:47:32;;;;;;;69.67;8.40;;;18.90;99.90;;;;;;5053501;28;20875;-73
2022/11/03 09:50:00;;;;;;;65.07;8.00;;;19.10;99.90;;;;;;5053189;28;20445;-72
2022/11/03 09:52:27;;;;;;;64.40;8.27;;;19.00;99.90;;;;;;5053470;28;20448;-73
2022/11/03 09:54:55;;;;;;;65.30;8.60;;;17.60;99.90;;;;;;5053665;28;20448;-73
2022/11/03 09:57:22;;;;;;;66.47;8.53;;;17.00;99.90;;;;;;5053576;28;20472;-73
2022/11/03 09:59:50;;;;;;;64.90;8.10;;;17.00;99.90;;;;;;5052698;28;20444;-73
2022/11/03 10:02:24;;;;;;;66.00;8.37;;;17.20;99.90;;;;;;5053646;28;20480;-73
2022/11/03 10:04:53;;;;;;;65.40;7.60;;;16.20;99.90;;;;;;5053381;28;20440;-73
2022/11/03 10:07:21;;;;;;;65.40;7.37;;;15.50;99.90;;;;;;5053166;28;20963;-73
2022/11/03 10:09:51;;;;;;;63.97;6.80;;;15.30;99.90;;;;;;5052559;28;20444;-73
2022/11/03 10:12:18;;;;;;;68.97;6.77;;;15.30;99.90;;;;;;5053533;28;20472;-73
2022/11/03 10:14:46;;;;;;;65.43;8.03;;;15.30;99.90;;;;;;5053111;28;20492;-74
2022/11/03 10:17:17;;;;;;;64.17;7.07;;;15.10;99.90;;;;;;5053122;28;20464;-72
2022/11/03 10:19:47;;;;;;;62.90;7.00;;;14.50;99.90;;;;;;5052539;28;20456;-72
2022/11/03 10:22:14;;;;;;;62.63;6.80;;;14.10;99.90;;;;;;5053030;28;20456;-72
2022/11/03 10:24:41;;;;;;;67.10;7.20;;;13.70;99.90;;;;;;5053319;28;20452;-73
2022/11/03 10:27:21;;;;;;;65.13;7.33;;;13.80;99.90;;;;;;5053102;28;20559;-72
2022/11/03 10:30:07;;;;;;;65.93;7.50;;;14.00;1.00;;;;;;5052349;28;20448;-73
2022/11/03 10:32:34;;;;;;;63.77;7.57;;;14.00;1.00;;;;;;5052730;28;20459;-74
2022/11/03 10:35:03;;;;;;;66.37;7.80;;;14.60;1.00;;;;;;5052736;28;20487;-73
2022/11/03 10:37:30;;;;;;;64.20;7.67;;;15.10;1.00;;;;;;5052804;28;20900;-73
2022/11/03 10:39:58;;;;;;;66.03;7.00;;;15.30;1.00;;;;;;5051809;28;20452;-74
2022/11/03 10:42:28;;;;;;;64.27;7.10;;;15.50;1.00;;;;;;5052732;28;20793;-73
2022/11/03 10:45:09;;;;;;;62.40;6.27;;;15.40;99.90;;;;;;5052737;28;20449;-73
2022/11/03 10:47:35;;;;;;;61.67;5.93;;;15.40;99.90;;;;;;5052360;28;20550;-73
2022/11/03 10:50:20;;;;;;;63.30;6.13;;;15.50;99.90;;;;;;5051547;28;20820;-73
2022/11/03 10:52:47;;;;;;;66.87;7.60;;;15.20;99.90;;;;;;5052392;28;20959;-73
2022/11/03 10:55:13;;;;;;;64.60;7.20;;;15.20;99.90;;;;;;5052456;28;20450;-74
2022/11/03 10:57:40;;;;;;;63.40;5.90;;;15.10;99.90;;;;;;5052386;28;20842;-73
2022/11/03 11:00:14;;;;;;;63.97;6.83;;;15.40;99.90;;;;;;5051525;28;20471;-73
2022/11/03 11:02:42;;;;;;;67.17;6.90;;;15.50;99.90;;;;;;5052456;28;20462;-73
2022/11/03 11:05:15;;;;;;;63.73;6.80;;;15.30;99.90;;;;;;5052352;28;20547;-73
2022/11/03 11:07:43;;;;;;;64.27;7.07;;;15.50;99.90;;;;;;5052134;28;20507;-74
2022/11/03 11:10:16;;;;;;;62.87;6.40;;;15.50;99.90;;;;;;5051811;28;20456;-73
2022/11/03 11:13:22;;;;;;;63.10;5.63;;;15.80;99.90;;;;;;5051656;28;20937;-73
2022/11/03 11:15:50;;;;;;;61.70;5.97;;;16.40;99.90;;;;;;5036997;28;20466;-73
2022/11/03 11:18:50;;;;;;;66.17;7.17;;;16.20;99.90;;;;;;5051666;28;20469;-74
2022/11/03 11:25:03;;;;;;;62.17;6.10;;;16.10;99.90;;;;;;5089425;28;21048;-73
2022/11/03 11:28:18;;;;;;;64.87;6.53;;;16.10;99.90;;;;;;5089576;28;20985;-73
2022/11/03 11:31:27;;;;;;;62.37;6.10;;;15.90;99.90;;;;;;5088698;28;20469;-74
2022/11/03 11:34:27;;;;;;;61.20;5.77;;;15.60;99.90;;;;;;5089349;28;20444;-73
2022/11/03 11:37:27;;;;;;;62.37;6.43;;;15.20;99.90;;;;;;5089212;28;20476;-73
2022/11/03 11:39:53;;;;;;;62.80;6.47;;;15.40;99.90;;;;;;5088144;28;20450;-73
2022/11/03 11:42:22;;;;;;;64.10;7.03;;;15.60;99.90;;;;;;5089133;28;20823;-73
2022/11/03 11:45:06;;;;;;;62.47;6.40;;;15.40;99.90;;;;;;5088933;28;20453;-73
2022/11/03 11:47:54;;;;;;;63.83;6.10;;;15.20;99.90;;;;;;5088997;28;20554;-73
2022/11/03 11:50:39;;;;;;;63.20;6.03;;;15.20;1.00;;;;;;5083361;28;20466;-73
2022/11/03 11:53:33;;;;;;;63.30;6.80;;;15.40;1.00;;;;;;5088808;28;20935;-73
2022/11/03 11:56:02;;;;;;;66.50;7.03;;;15.40;1.00;;;;;;5074795;28;20558;-73
2022/11/03 11:58:41;;;;;;;63.80;6.80;;;15.60;1.00;;;;;;5088352;28;20489;-73
2022/11/03 12:01:22;;;;;;;66.07;7.13;;;16.40;1.00;;;;;;5088869;28;20459;-73
2022/11/03 12:03:50;;;;;;;63.70;6.17;;;16.40;1.00;;;;;;5088539;28;20488;-73
2022/11/03 12:06:17;;;;;;;62.93;6.70;;;16.20;99.90;;;;;;5088651;28;20450;-73
2022/11/03 12:08:44;;;;;;;62.30;6.40;;;15.70;99.90;;;;;;5087618;28;20876;-73
2022/11/03 12:11:12;;;;;;;64.27;6.27;;;15.80;1.00;;;;;;5088414;28;20442;-73
2022/11/03 12:13:51;;;;;;;63.83;6.60;;;15.60;1.00;;;;;;5088624;28;20445;-73
2022/11/03 12:16:34;;;;;;;64.60;6.60;;;15.60;1.00;;;;;;5088091;28;20493;-74
2022/11/03 12:19:33;;;;;;;61.67;6.70;;;15.40;1.00;;;;;;5087205;28;20967;-73
2022/11/03 12:22:00;;;;;;;63.47;6.30;;;15.30;1.00;;;;;;5088296;28;20446;-73
2022/11/03 12:24:37;;;;;;;63.40;7.17;;;15.40;1.00;;;;;;5087462;28;20489;-73
2022/11/03 12:27:17;;;;;;;64.10;7.17;;;15.20;1.00;;;;;;5088116;28;20851;-73
2022/11/03 12:29:45;;;;;;;65.13;6.43;;;15.60;1.00;;;;;;5086453;28;20442;-73
2022/11/03 12:32:12;;;;;;;63.07;6.40;;;15.70;1.00;;;;;;5087493;28;20452;-73
2022/11/03 12:34:38;;;;;;;62.10;6.27;;;15.90;1.00;;;;;;5080373;28;20530;-73
2022/11/03 12:37:05;;;;;;;64.60;7.10;;;15.90;1.00;;;;;;5074223;28;20471;-73
2022/11/03 12:39:32;;;;;;;62.70;5.87;;;16.30;1.00;;;;;;5073451;28;20448;-73
2022/11/03 12:41:59;;;;;;;63.40;6.00;;;16.80;1.00;;;;;;5073432;28;20451;-73
2022/11/03 12:44:26;;;;;;;64.60;6.60;;;17.10;99.90;;;;;;5073186;28;20483;-73
2022/11/03 12:46:54;;;;;;;63.07;5.93;;;17.40;99.90;;;;;;5074380;28;20835;-73
2022/11/03 12:49:20;;;;;;;62.07;6.70;;;17.60;99.90;;;;;;5072714;28;20446;-74
2022/11/03 12:51:47;;;;;;;61.80;6.70;;;17.80;99.90;;;;;;5074532;28;20452;-73
2022/11/03 12:54:14;;;;;;;67.60;6.60;;;17.70;99.90;;;;;;5074246;28;20538;-73
2022/11/03 12:56:41;;;;;;;64.50;6.77;;;17.60;99.90;;;;;;5073962;28;20465;-74
2022/11/03 12:59:08;;;;;;;61.77;6.80;;;17.80;99.90;;;;;;5073252;28;20462;-73
2022/11/03 13:01:34;;;;;;;61.37;6.50;;;17.90;99.90;;;;;;5073978;28;20447;-73
2022/11/03 13:04:04;;;;;;;62.67;5.60;;;18.00;99.90;;;;;;5074101;28;20483;-73
2022/11/03 13:06:31;;;;;;;63.20;6.50;;;18.10;99.90;;;;;;5074152;28;20486;-74
2022/11/03 13:08:58;;;;;;;61.37;5.83;;;18.20;99.90;;;;;;5073323;28;20538;-73
2022/11/03 13:14:25;;;;;;;64.13;6.03;;;17.90;99.90;;;;;;5074088;28;20426;-73
2022/11/03 13:16:52;;;;;;;63.80;6.23;;;18.00;99.90;;;;;;5070071;28;20517;-74
2022/11/03 13:19:20;;;;;;;65.23;6.40;;;18.20;99.90;;;;;;5073185;28;20447;-74
2022/11/03 13:21:47;;;;;;;65.37;6.87;;;18.30;99.90;;;;;;5073775;28;20443;-73
2022/11/03 13:24:13;;;;;;;62.60;6.00;;;18.30;99.90;;;;;;5073459;28;20578;-74
2022/11/03 13:26:40;;;;;;;66.17;6.80;;;18.30;99.90;;;;;;5073575;28;20450;-73